createdAt,value
2019-03-24T00:01:41.232Z,10.96
2019-03-24T00:04:06.065Z,10.98
2019-03-24T00:06:37.205Z,10.96
2019-03-24T00:09:09.262Z,10.96
2019-03-24T00:11:40.289Z,10.95
2019-03-24T00:14:11.261Z,10.93
2019-03-24T00:16:42.285Z,10.84
2019-03-24T00:19:13.298Z,10.87
2019-03-24T00:21:44.281Z,10.86
2019-03-24T00:24:15.295Z,10.84
2019-03-24T00:26:46.329Z,10.81
2019-03-24T00:29:17.317Z,10.81
2019-03-24T00:31:48.355Z,10.71
2019-03-24T00:34:19.343Z,10.65
2019-03-24T00:36:50.377Z,10.64
2019-03-24T00:39:21.585Z,10.59
2019-03-24T00:41:52.560Z,10.51
2019-03-24T00:44:23.577Z,10.45
2019-03-24T00:46:54.561Z,10.40
2019-03-24T00:49:25.586Z,10.35
2019-03-24T00:51:56.570Z,10.30
2019-03-24T00:54:27.592Z,10.25
2019-03-24T00:56:58.563Z,10.19
2019-03-24T00:59:29.641Z,10.11
2019-03-24T01:02:00.689Z,10.07
2019-03-24T01:04:31.680Z,10.04
2019-03-24T01:07:02.707Z,9.97
2019-03-24T01:09:33.793Z,9.93
2019-03-24T01:12:04.912Z,9.87
2019-03-24T01:14:35.998Z,9.80
2019-03-24T01:17:07.035Z,9.72
2019-03-24T01:19:38.012Z,9.68
2019-03-24T01:22:09.123Z,9.65
2019-03-24T01:24:40.113Z,9.59
2019-03-24T01:27:11.133Z,9.53
2019-03-24T01:29:42.148Z,9.45
2019-03-24T01:32:13.172Z,9.44
2019-03-24T01:34:44.164Z,9.41
2019-03-24T01:37:15.188Z,9.38
2019-03-24T01:39:46.171Z,9.34
2019-03-24T01:42:17.185Z,9.32
2019-03-24T01:44:48.200Z,9.31
2019-03-24T01:47:19.219Z,9.27
2019-03-24T01:49:50.224Z,9.24
2019-03-24T01:52:21.299Z,9.20
2019-03-24T01:54:52.307Z,9.19
2019-03-24T01:57:23.304Z,9.18
2019-03-24T01:59:54.303Z,9.16
2019-03-24T02:02:25.296Z,9.13
2019-03-24T02:04:56.359Z,9.14
2019-03-24T02:07:27.372Z,9.07
2019-03-24T02:09:58.345Z,9.04
2019-03-24T02:12:29.355Z,9.04
2019-03-24T02:15:00.351Z,9.04
2019-03-24T02:17:31.376Z,9.02
2019-03-24T02:20:02.355Z,9.02
2019-03-24T02:22:33.337Z,9.01
2019-03-24T02:25:04.494Z,9.02
2019-03-24T02:27:35.470Z,9.01
2019-03-24T02:30:07.809Z,9.01
2019-03-24T02:32:38.792Z,8.98
2019-03-24T02:35:09.953Z,8.95
2019-03-24T02:37:40.981Z,8.93
2019-03-24T02:40:12.170Z,8.89
2019-03-24T02:42:43.207Z,8.86
2019-03-24T02:45:14.564Z,8.83
2019-03-24T02:47:45.607Z,8.80
2019-03-24T02:50:16.931Z,8.76
2019-03-24T02:52:48.047Z,8.74
2019-03-24T02:55:19.123Z,8.71
2019-03-24T02:57:50.094Z,8.66
2019-03-24T03:00:21.168Z,8.62
2019-03-24T03:02:52.195Z,8.60
2019-03-24T03:05:23.171Z,8.57
2019-03-24T03:07:54.194Z,8.52
2019-03-24T03:10:25.226Z,8.50
2019-03-24T03:12:56.191Z,8.46
2019-03-24T03:15:27.316Z,8.42
2019-03-24T03:17:58.317Z,7.76
2019-03-24T03:20:29.281Z,8.36
2019-03-24T03:23:00.318Z,8.30
2019-03-24T03:25:31.263Z,8.26
2019-03-24T03:28:02.378Z,8.23
2019-03-24T03:30:33.350Z,8.19
2019-03-24T03:33:04.377Z,8.13
2019-03-24T03:35:35.406Z,8.11
2019-03-24T03:38:06.525Z,8.08
2019-03-24T03:40:37.502Z,8.05
2019-03-24T03:43:08.762Z,8.03
2019-03-24T03:45:39.776Z,7.99
2019-03-24T03:48:10.791Z,7.97
2019-03-24T03:50:41.769Z,7.83
2019-03-24T03:53:12.749Z,7.84
2019-03-24T03:55:43.881Z,7.71
2019-03-24T03:58:14.896Z,7.68
2019-03-24T04:00:45.876Z,7.66
2019-03-24T04:03:16.860Z,7.65
2019-03-24T04:05:47.905Z,7.68
2019-03-24T04:08:18.874Z,7.66
2019-03-24T04:10:49.910Z,7.70
2019-03-24T04:13:20.931Z,7.71
2019-03-24T04:15:51.927Z,7.73
2019-03-24T04:18:22.942Z,7.75
2019-03-24T04:20:53.934Z,7.76
2019-03-24T04:23:24.955Z,7.78
2019-03-24T04:25:55.945Z,7.77
2019-03-24T04:28:26.972Z,7.77
2019-03-24T04:30:57.947Z,7.79
2019-03-24T04:33:28.981Z,7.78
2019-03-24T04:35:59.965Z,7.80
2019-03-24T04:38:31.033Z,7.80
2019-03-24T04:41:02.033Z,7.78
2019-03-24T04:43:33.061Z,7.74
2019-03-24T04:46:04.093Z,7.79
2019-03-24T04:48:35.081Z,7.87
2019-03-24T04:51:06.129Z,7.99
2019-03-24T04:53:37.117Z,7.98
2019-03-24T04:56:08.099Z,7.92
2019-03-24T04:58:39.120Z,8.00
2019-03-24T05:01:10.108Z,8.16
2019-03-24T05:03:41.143Z,8.28
2019-03-24T05:06:12.433Z,8.41
2019-03-24T05:08:43.560Z,8.44
2019-03-24T05:11:14.552Z,8.58
2019-03-24T05:13:45.585Z,8.78
2019-03-24T05:16:16.610Z,8.73
2019-03-24T05:18:47.636Z,8.99
2019-03-24T05:21:18.628Z,9.01
2019-03-24T05:23:49.665Z,9.36
2019-03-24T05:26:20.643Z,9.32
2019-03-24T05:28:51.672Z,9.48
2019-03-24T05:31:22.658Z,9.64
2019-03-24T05:33:53.703Z,9.86
2019-03-24T05:36:24.700Z,9.85
2019-03-24T05:38:55.732Z,10.01
2019-03-24T05:41:26.767Z,10.29
2019-03-24T05:43:57.795Z,10.41
2019-03-24T05:46:28.794Z,10.48
2019-03-24T05:49:00.331Z,10.84
2019-03-24T05:51:31.331Z,10.85
2019-03-24T05:54:02.372Z,11.20
2019-03-24T05:56:33.405Z,11.25
2019-03-24T05:59:04.434Z,11.42
2019-03-24T06:01:35.427Z,11.51
2019-03-24T06:04:06.457Z,11.71
2019-03-24T06:06:37.393Z,11.66
2019-03-24T06:09:08.661Z,12.00
2019-03-24T06:11:39.613Z,11.88
2019-03-24T06:14:10.595Z,12.09
2019-03-24T06:16:41.546Z,12.18
2019-03-24T06:19:12.556Z,12.13
2019-03-24T06:21:43.497Z,12.30
2019-03-24T06:24:14.692Z,12.17
2019-03-24T06:26:45.681Z,12.19
2019-03-24T06:29:16.686Z,12.56
2019-03-24T06:31:47.634Z,12.65
2019-03-24T06:34:18.636Z,12.52
2019-03-24T06:36:49.589Z,12.55
2019-03-24T06:39:20.537Z,12.84
2019-03-24T06:41:51.521Z,12.92
2019-03-24T06:44:22.474Z,13.06
2019-03-24T06:46:53.475Z,13.35
2019-03-24T06:49:24.424Z,13.36
2019-03-24T06:51:55.372Z,13.50
2019-03-24T06:54:26.427Z,13.72
2019-03-24T06:56:57.377Z,13.41
2019-03-24T06:59:28.307Z,13.68
2019-03-24T07:01:59.294Z,13.33
2019-03-24T07:04:30.235Z,13.65
2019-03-24T07:07:01.231Z,13.76
2019-03-24T07:09:32.175Z,13.72
2019-03-24T07:12:03.221Z,13.91
2019-03-24T07:14:34.176Z,13.90
2019-03-24T07:17:05.273Z,14.03
2019-03-24T07:19:36.221Z,13.99
2019-03-24T07:22:07.365Z,14.32
2019-03-24T07:24:38.344Z,14.33
2019-03-24T07:27:09.338Z,13.97
2019-03-24T07:29:41.294Z,14.07
2019-03-24T07:32:12.263Z,14.04
2019-03-24T07:34:43.253Z,14.36
2019-03-24T07:37:14.310Z,14.40
2019-03-24T07:39:45.321Z,14.24
2019-03-24T07:42:16.315Z,14.41
2019-03-24T07:44:47.274Z,14.49
2019-03-24T07:47:18.373Z,14.70
2019-03-24T07:49:49.369Z,14.69
2019-03-24T07:52:20.378Z,14.70
2019-03-24T07:54:51.378Z,14.86
2019-03-24T07:57:22.325Z,14.89
2019-03-24T07:59:53.329Z,14.87
2019-03-24T08:02:24.606Z,15.08
2019-03-24T08:04:55.605Z,15.00
2019-03-24T08:07:26.546Z,15.17
2019-03-24T08:09:57.492Z,15.16
2019-03-24T08:12:28.489Z,15.29
2019-03-24T08:15:00.057Z,15.45
2019-03-24T08:17:31.207Z,15.35
2019-03-24T08:20:02.163Z,15.29
2019-03-24T08:22:33.146Z,15.40
2019-03-24T08:25:04.338Z,15.59
2019-03-24T08:27:35.299Z,15.70
2019-03-24T08:30:06.764Z,15.78
2019-03-24T08:32:37.761Z,15.82
2019-03-24T08:35:09.401Z,15.85
2019-03-24T08:37:40.402Z,15.56
2019-03-24T08:40:11.554Z,15.55
2019-03-24T08:42:42.657Z,15.75
2019-03-24T08:45:16.909Z,15.87
2019-03-24T08:47:47.896Z,15.86
2019-03-24T08:50:18.899Z,15.99
2019-03-24T08:52:49.863Z,16.08
2019-03-24T08:55:20.870Z,16.08
2019-03-24T08:57:51.871Z,16.19
2019-03-24T09:00:30.470Z,16.19
2019-03-24T09:02:55.577Z,16.19
2019-03-24T09:05:26.568Z,15.98
2019-03-24T09:07:57.505Z,15.96
2019-03-24T09:10:28.501Z,16.30
2019-03-24T09:12:59.490Z,16.37
2019-03-24T09:15:30.479Z,16.38
2019-03-24T09:18:01.530Z,16.34
2019-03-24T09:20:41.170Z,16.52
2019-03-24T09:23:05.304Z,16.46
2019-03-24T09:25:36.457Z,16.66
2019-03-24T09:28:09.224Z,16.69
2019-03-24T09:30:40.619Z,16.66
2019-03-24T09:33:11.672Z,16.69
2019-03-24T09:35:42.679Z,16.65
2019-03-24T09:38:13.648Z,16.73
2019-03-24T09:40:44.648Z,16.70
2019-03-24T09:43:15.609Z,16.56
2019-03-24T09:45:46.556Z,16.60
2019-03-24T09:48:17.548Z,16.57
2019-03-24T09:50:48.489Z,16.69
2019-03-24T09:53:19.488Z,16.76
2019-03-24T09:55:50.479Z,16.79
2019-03-24T09:58:21.424Z,16.92
2019-03-24T10:00:52.390Z,16.99
2019-03-24T10:03:23.386Z,17.10
2019-03-24T10:05:54.328Z,17.21
2019-03-24T10:08:25.314Z,17.20
2019-03-24T10:10:56.302Z,17.11
2019-03-24T10:13:27.301Z,17.22
2019-03-24T10:15:58.241Z,17.29
2019-03-24T10:18:29.186Z,17.36
2019-03-24T10:21:00.172Z,17.38
2019-03-24T10:23:31.130Z,17.42
2019-03-24T10:26:02.145Z,17.44
2019-03-24T10:28:33.069Z,17.44
2019-03-24T10:31:04.153Z,17.49
2019-03-24T10:33:35.143Z,17.55
2019-03-24T10:36:06.236Z,17.67
2019-03-24T10:38:37.172Z,17.63
2019-03-24T10:41:08.126Z,17.80
2019-03-24T10:43:39.126Z,17.83
2019-03-24T10:46:10.105Z,17.95
2019-03-24T10:48:41.062Z,17.92
2019-03-24T10:51:11.999Z,17.98
2019-03-24T10:53:42.979Z,18.00
2019-03-24T10:56:13.927Z,18.01
2019-03-24T10:58:44.920Z,17.93
2019-03-24T11:01:15.917Z,18.01
2019-03-24T11:03:46.866Z,18.02
2019-03-24T11:06:17.809Z,18.07
2019-03-24T11:08:48.792Z,17.88
2019-03-24T11:11:19.735Z,17.84
2019-03-24T11:13:50.719Z,18.00
2019-03-24T11:16:21.660Z,17.87
2019-03-24T11:18:52.640Z,17.99
2019-03-24T11:21:23.580Z,18.06
2019-03-24T11:23:54.557Z,17.99
2019-03-24T11:26:25.500Z,17.92
2019-03-24T11:28:56.482Z,17.95
2019-03-24T11:31:27.475Z,17.85
2019-03-24T11:33:58.430Z,17.89
2019-03-24T11:36:29.380Z,17.32
2019-03-24T11:39:00.367Z,17.77
2019-03-24T11:41:31.356Z,17.76
2019-03-24T11:44:02.305Z,17.78
2019-03-24T11:46:33.323Z,17.88
2019-03-24T11:49:04.268Z,17.90
2019-03-24T11:51:35.256Z,17.98
2019-03-24T11:54:06.345Z,17.98
2019-03-24T11:56:37.335Z,18.05
2019-03-24T11:59:08.288Z,17.99
2019-03-24T12:01:39.284Z,18.02
2019-03-24T12:04:10.287Z,17.93
2019-03-24T12:06:41.275Z,17.92
2019-03-24T12:09:12.269Z,17.95
2019-03-24T12:11:43.212Z,17.95
2019-03-24T12:14:14.191Z,18.08
2019-03-24T12:16:45.139Z,18.13
2019-03-24T12:19:16.126Z,18.17
2019-03-24T12:21:47.123Z,18.18
2019-03-24T12:24:18.057Z,18.20
2019-03-24T12:26:49.013Z,18.22
2019-03-24T12:29:20.005Z,18.23
2019-03-24T12:31:50.956Z,18.32
2019-03-24T12:34:21.951Z,18.40
2019-03-24T12:36:52.952Z,18.42
2019-03-24T12:39:23.906Z,18.45
2019-03-24T12:41:54.932Z,18.48
2019-03-24T12:44:25.893Z,18.48
2019-03-24T12:46:56.883Z,18.59
2019-03-24T12:49:27.831Z,18.64
2019-03-24T12:51:58.776Z,18.71
2019-03-24T12:54:29.719Z,18.70
2019-03-24T12:57:00.825Z,18.75
2019-03-24T12:59:31.758Z,18.71
2019-03-24T13:02:03.694Z,18.80
2019-03-24T13:04:34.724Z,18.85
2019-03-24T13:07:05.820Z,18.88
2019-03-24T13:09:36.771Z,18.82
2019-03-24T13:12:07.720Z,18.84
2019-03-24T13:14:38.665Z,18.86
2019-03-24T13:17:09.613Z,18.99
2019-03-24T13:19:40.605Z,19.08
2019-03-24T13:22:11.546Z,19.12
2019-03-24T13:24:42.523Z,19.18
2019-03-24T13:27:13.476Z,19.24
2019-03-24T13:29:44.458Z,19.21
2019-03-24T13:32:15.438Z,19.33
2019-03-24T13:34:46.381Z,19.42
2019-03-24T13:37:17.372Z,19.45
2019-03-24T13:39:48.327Z,19.45
2019-03-24T13:42:19.286Z,19.45
2019-03-24T13:44:50.321Z,19.45
2019-03-24T13:47:21.283Z,19.46
2019-03-24T13:49:52.276Z,19.41
2019-03-24T13:52:23.224Z,19.36
2019-03-24T13:54:54.208Z,19.47
2019-03-24T13:57:25.154Z,19.50
2019-03-24T13:59:56.136Z,19.51
2019-03-24T14:02:27.086Z,19.55
2019-03-24T14:04:58.089Z,19.56
2019-03-24T14:07:29.035Z,19.56
2019-03-24T14:09:59.983Z,19.52
2019-03-24T14:12:30.924Z,19.53
2019-03-24T14:15:01.875Z,19.61
2019-03-24T14:17:32.919Z,19.60
2019-03-24T14:20:04.008Z,19.58
2019-03-24T14:22:35.065Z,19.62
2019-03-24T14:25:06.713Z,19.57
2019-03-24T14:27:37.761Z,19.62
2019-03-24T14:30:09.856Z,19.58
2019-03-24T14:32:40.854Z,19.57
2019-03-24T14:35:12.048Z,19.58
2019-03-24T14:37:42.994Z,19.52
2019-03-24T14:40:14.487Z,19.36
2019-03-24T14:42:45.507Z,19.41
2019-03-24T14:45:16.700Z,19.41
2019-03-24T14:47:47.706Z,19.39
2019-03-24T14:50:18.755Z,19.38
2019-03-24T14:52:49.709Z,19.33
2019-03-24T14:55:20.701Z,19.25
2019-03-24T14:57:51.759Z,19.26
2019-03-24T15:00:31.382Z,19.25
2019-03-24T15:03:02.371Z,19.22
2019-03-24T15:05:33.420Z,19.15
2019-03-24T15:08:05.739Z,19.10
2019-03-24T15:10:36.751Z,19.03
2019-03-24T15:13:07.976Z,18.98
2019-03-24T15:15:39.069Z,18.93
2019-03-24T15:18:10.102Z,18.89
2019-03-24T15:20:41.135Z,18.84
2019-03-24T15:23:12.125Z,18.80
2019-03-24T15:25:43.112Z,18.76
2019-03-24T15:28:14.208Z,18.73
2019-03-24T15:30:45.250Z,18.66
2019-03-24T15:33:16.326Z,18.63
2019-03-24T15:35:47.354Z,18.58
2019-03-24T15:38:18.327Z,18.55
2019-03-24T15:40:49.799Z,18.49
2019-03-24T15:43:20.779Z,18.49
2019-03-24T15:45:51.803Z,18.48
2019-03-24T15:48:22.783Z,18.43
2019-03-24T15:50:53.770Z,18.38
2019-03-24T15:53:24.789Z,18.35
2019-03-24T15:55:55.779Z,18.30
2019-03-24T15:58:26.816Z,18.25
2019-03-24T16:00:57.812Z,18.20
2019-03-24T16:03:28.860Z,18.14
2019-03-24T16:05:59.845Z,18.09
2019-03-24T16:08:30.879Z,18.03
2019-03-24T16:11:01.970Z,17.96
2019-03-24T16:13:33.013Z,17.91
2019-03-24T16:16:04.036Z,17.85
2019-03-24T16:18:35.060Z,17.79
2019-03-24T16:21:06.058Z,17.71
2019-03-24T16:23:37.095Z,17.64
2019-03-24T16:26:08.137Z,17.60
2019-03-24T16:28:39.132Z,17.52
2019-03-24T16:31:10.175Z,17.42
2019-03-24T16:33:41.404Z,17.36
2019-03-24T16:36:12.429Z,17.27
2019-03-24T16:38:48.797Z,17.19
2019-03-24T16:41:16.132Z,17.12
2019-03-24T16:43:47.123Z,16.97
2019-03-24T16:46:18.250Z,16.86
2019-03-24T16:48:49.285Z,16.78
2019-03-24T16:51:20.271Z,16.70
2019-03-24T16:53:51.349Z,16.62
2019-03-24T16:56:22.343Z,16.54
2019-03-24T16:58:53.369Z,16.48
2019-03-24T17:01:24.511Z,16.40
2019-03-24T17:03:55.492Z,16.32
2019-03-24T17:06:26.485Z,16.21
2019-03-24T17:08:57.524Z,16.14
2019-03-24T17:11:28.512Z,16.04
2019-03-24T17:13:59.558Z,15.95
2019-03-24T17:16:30.539Z,15.85
2019-03-24T17:19:01.532Z,15.75
2019-03-24T17:21:32.561Z,15.69
2019-03-24T17:24:03.594Z,15.63
2019-03-24T17:26:36.023Z,15.56
2019-03-24T17:29:06.986Z,15.47
2019-03-24T17:31:37.992Z,15.40
2019-03-24T17:34:09.047Z,15.30
2019-03-24T17:36:40.342Z,15.23
2019-03-24T17:39:11.369Z,15.14
2019-03-24T17:41:42.366Z,15.05
2019-03-24T17:44:13.417Z,14.96
2019-03-24T17:46:44.406Z,14.88
2019-03-24T17:49:15.411Z,14.79
2019-03-24T17:51:46.452Z,14.69
2019-03-24T17:54:17.493Z,14.64
2019-03-24T17:56:48.507Z,14.57
2019-03-24T17:59:19.598Z,14.51
2019-03-24T18:01:50.597Z,14.41
2019-03-24T18:04:24.772Z,14.35
2019-03-24T18:06:54.348Z,14.27
2019-03-24T18:09:25.361Z,14.19
2019-03-24T18:11:56.395Z,14.13
2019-03-24T18:14:27.399Z,14.07
2019-03-24T18:16:58.468Z,14.01
2019-03-24T18:19:29.505Z,13.98
2019-03-24T18:22:11.102Z,13.89
2019-03-24T18:24:33.254Z,13.77
2019-03-24T18:27:04.290Z,13.75
2019-03-24T18:29:35.338Z,13.64
2019-03-24T18:32:06.348Z,13.55
2019-03-24T18:34:37.342Z,13.47
2019-03-24T18:37:08.471Z,13.42
2019-03-24T18:39:39.506Z,13.39
2019-03-24T18:42:10.642Z,13.38
2019-03-24T18:44:41.642Z,13.36
2019-03-24T18:47:12.682Z,13.27
2019-03-24T18:49:43.730Z,13.26
2019-03-24T18:52:22.684Z,13.09
2019-03-24T18:54:47.673Z,13.11
2019-03-24T18:57:18.722Z,13.13
2019-03-24T18:59:49.818Z,13.08
2019-03-24T19:02:20.867Z,13.01
2019-03-24T19:04:51.868Z,12.96
2019-03-24T19:07:22.884Z,12.92
2019-03-24T19:09:53.930Z,12.84
2019-03-24T19:12:24.976Z,12.85
2019-03-24T19:14:56.014Z,12.79
2019-03-24T19:17:27.001Z,12.63
2019-03-24T19:19:58.039Z,12.62
2019-03-24T19:22:33.562Z,12.42
2019-03-24T19:25:01.745Z,12.36
2019-03-24T19:27:32.834Z,12.28
2019-03-24T19:30:04.083Z,12.15
2019-03-24T19:32:35.336Z,12.06
2019-03-24T19:35:06.981Z,12.13
2019-03-24T19:37:38.048Z,12.08
2019-03-24T19:40:15.185Z,12.05
2019-03-24T19:42:46.158Z,11.91
2019-03-24T19:45:17.199Z,11.93
2019-03-24T19:47:48.215Z,11.89
2019-03-24T19:50:19.308Z,11.89
2019-03-24T19:52:50.436Z,11.85
2019-03-24T19:55:21.442Z,11.82
2019-03-24T19:57:52.449Z,11.78
2019-03-24T20:00:23.592Z,11.77
2019-03-24T20:02:54.584Z,11.71
2019-03-24T20:05:26.977Z,11.71
2019-03-24T20:07:58.085Z,11.60
2019-03-24T20:10:29.115Z,11.60
2019-03-24T20:13:00.113Z,11.53
2019-03-24T20:15:31.204Z,11.49
2019-03-24T20:18:02.193Z,11.34
2019-03-24T20:20:33.222Z,11.21
2019-03-24T20:23:04.348Z,11.24
2019-03-24T20:25:35.475Z,11.23
2019-03-24T20:28:06.613Z,11.15
2019-03-24T20:30:37.605Z,11.14
2019-03-24T20:33:08.654Z,11.08
2019-03-24T20:35:39.659Z,11.16
2019-03-24T20:38:10.700Z,11.07
2019-03-24T20:40:41.742Z,11.03
2019-03-24T20:43:12.838Z,11.02
2019-03-24T20:45:43.881Z,11.02
2019-03-24T20:48:15.048Z,11.03
2019-03-24T20:50:46.182Z,10.95
2019-03-24T20:53:18.316Z,10.97
2019-03-24T20:55:49.756Z,10.94
2019-03-24T20:58:20.762Z,10.90
2019-03-24T21:00:51.910Z,10.74
2019-03-24T21:03:22.954Z,10.67
2019-03-24T21:05:53.963Z,10.51
2019-03-24T21:08:24.971Z,10.49
2019-03-24T21:10:55.971Z,10.36
2019-03-24T21:13:27.030Z,10.30
2019-03-24T21:15:58.023Z,10.27
2019-03-24T21:18:29.055Z,10.12
2019-03-24T21:21:00.097Z,10.09
2019-03-24T21:23:31.133Z,10.00
2019-03-24T21:26:02.226Z,10.00
2019-03-24T21:28:33.259Z,10.03
2019-03-24T21:31:04.254Z,10.01
2019-03-24T21:33:35.281Z,10.01
2019-03-24T21:36:06.508Z,9.98
2019-03-24T21:38:37.501Z,9.91
2019-03-24T21:41:08.630Z,9.94
2019-03-24T21:43:39.625Z,9.94
2019-03-24T21:46:10.654Z,9.81
2019-03-24T21:48:41.653Z,9.75
2019-03-24T21:51:12.676Z,9.66
2019-03-24T21:53:43.705Z,9.67
2019-03-24T21:56:14.741Z,9.66
2019-03-24T21:58:45.728Z,9.65
2019-03-24T22:01:16.779Z,9.65
2019-03-24T22:03:47.798Z,9.69
2019-03-24T22:06:18.841Z,9.63
2019-03-24T22:08:49.884Z,9.67
2019-03-24T22:11:20.891Z,9.67
2019-03-24T22:13:51.928Z,9.65
2019-03-24T22:16:22.959Z,9.55
2019-03-24T22:18:53.956Z,9.58
2019-03-24T22:21:25.090Z,9.58
2019-03-24T22:23:56.078Z,9.57
2019-03-24T22:26:27.108Z,9.57
2019-03-24T22:28:58.137Z,9.55
2019-03-24T22:31:29.135Z,9.53
2019-03-24T22:34:00.174Z,9.53
2019-03-24T22:36:31.172Z,9.52
2019-03-24T22:39:02.206Z,9.53
2019-03-24T22:41:33.249Z,9.49
2019-03-24T22:44:04.242Z,9.47
2019-03-24T22:46:35.285Z,9.46
2019-03-24T22:49:06.435Z,9.46
2019-03-24T22:51:37.434Z,9.43
2019-03-24T22:54:08.451Z,9.31
2019-03-24T22:56:39.522Z,9.15
2019-03-24T22:59:10.534Z,9.19
2019-03-24T23:01:41.632Z,9.06
2019-03-24T23:04:12.658Z,9.17
2019-03-24T23:06:43.682Z,9.23
2019-03-24T23:09:14.674Z,9.27
2019-03-24T23:11:45.705Z,9.30
2019-03-24T23:14:16.744Z,9.29
2019-03-24T23:16:47.744Z,9.30
2019-03-24T23:19:18.737Z,9.30
2019-03-24T23:21:49.741Z,9.29
2019-03-24T23:24:20.736Z,9.29
2019-03-24T23:26:51.773Z,9.28
2019-03-24T23:29:22.766Z,9.27
2019-03-24T23:31:53.805Z,9.23
2019-03-24T23:34:24.818Z,9.22
2019-03-24T23:36:55.847Z,9.21
2019-03-24T23:39:26.838Z,9.17
2019-03-24T23:41:58.060Z,9.14
2019-03-24T23:44:29.053Z,9.12
2019-03-24T23:47:00.094Z,9.11
2019-03-24T23:49:31.130Z,9.10
2019-03-24T23:52:02.131Z,9.08
2019-03-24T23:54:33.169Z,9.06
2019-03-24T23:57:04.165Z,9.03
2019-03-24T23:59:35.190Z,9.01
